Time;durP1;ratioP1;P1;durP2;ratioP2;P2;SDS_P1;SDS_P2;PMS_P1;PMS_P2;Temp;Humidity;BMP_temperature;BMP_pressure;BME280_temperature;BME280_humidity;BME280_pressure;Samples;Min_cycle;Max_cycle;Signal;HPM_P1;HPM_P2
2021/10/27 00:01:45;;;;;;;14.13;10.43;;;;;;;7.15;58.50;101430.42;1730898;81;21592;-69
2021/10/27 00:04:12;;;;;;;13.93;9.15;;;;;;;7.13;58.68;101435.12;1725399;81;21066;-69
2021/10/27 00:06:39;;;;;;;13.83;10.05;;;;;;;7.10;58.72;101427.05;1734759;81;21756;-69
2021/10/27 00:09:06;;;;;;;13.53;10.08;;;;;;;7.08;58.77;101433.12;1732556;81;21133;-69
2021/10/27 00:11:33;;;;;;;14.40;10.55;;;;;;;7.08;58.88;101430.45;1740196;80;21084;-68
2021/10/27 00:14:00;;;;;;;12.73;9.63;;;;;;;7.08;58.94;101432.30;1739883;80;22110;-68
2021/10/27 00:16:29;;;;;;;14.00;10.15;;;;;;;7.07;58.97;101435.45;1743936;80;21019;-68
2021/10/27 00:18:56;;;;;;;16.80;9.80;;;;;;;7.05;59.05;101429.55;1740441;81;21038;-70
2021/10/27 00:21:22;;;;;;;15.88;9.83;;;;;;;7.04;59.17;101422.10;1743283;80;21057;-69
2021/10/27 00:23:49;;;;;;;13.50;9.70;;;;;;;7.04;59.30;101429.23;1746307;80;21106;-70
2021/10/27 00:26:16;;;;;;;13.58;9.73;;;;;;;7.02;59.44;101420.67;1744537;80;21536;-69
2021/10/27 00:28:42;;;;;;;18.98;10.85;;;;;;;7.01;59.57;101428.35;1699906;83;21011;-69
2021/10/27 00:31:09;;;;;;;17.62;10.18;;;;;;;7.02;59.64;101427.31;1725994;81;21608;-68
2021/10/27 00:33:37;;;;;;;12.43;9.58;;;;;;;7.01;59.68;101422.52;1718203;81;21312;-68
2021/10/27 00:36:05;;;;;;;14.78;9.88;;;;;;;7.02;59.79;101423.33;1718967;81;21234;-69
2021/10/27 00:38:32;;;;;;;14.60;10.35;;;;;;;7.01;59.78;101423.85;1722168;81;21560;-68
2021/10/27 00:40:58;;;;;;;12.75;9.25;;;;;;;7.00;59.89;101419.55;1717280;82;21070;-68
2021/10/27 00:43:25;;;;;;;13.50;10.58;;;;;;;7.00;59.95;101416.88;1720221;81;21138;-68
2021/10/27 00:45:52;;;;;;;13.22;9.98;;;;;;;6.99;60.02;101427.73;1722826;81;21145;-68
2021/10/27 00:48:18;;;;;;;13.13;9.80;;;;;;;6.99;60.08;101429.06;1726934;81;21104;-68
2021/10/27 00:50:45;;;;;;;14.98;9.58;;;;;;;6.98;60.11;101427.45;1718182;82;21115;-69
2021/10/27 00:53:13;;;;;;;11.90;8.70;;;;;;;6.97;60.08;101423.14;1721280;81;21053;-68
2021/10/27 00:55:40;;;;;;;15.03;8.65;;;;;;;6.96;60.15;101426.31;1713131;82;21165;-68
2021/10/27 00:58:07;;;;;;;14.75;10.43;;;;;;;6.94;60.29;101434.18;1722430;81;21059;-68
2021/10/27 01:00:35;;;;;;;13.43;9.40;;;;;;;6.93;60.45;101428.06;1719336;81;21118;-69
2021/10/27 01:03:02;;;;;;;15.60;9.40;;;;;;;6.91;60.55;101421.33;1725421;81;21537;-69
2021/10/27 01:05:30;;;;;;;14.40;9.93;;;;;;;6.89;60.65;101418.89;1719479;81;21114;-69
2021/10/27 01:07:56;;;;;;;12.53;9.35;;;;;;;6.88;60.75;101418.59;1719333;81;21055;-69
2021/10/27 01:10:27;;;;;;;13.68;9.98;;;;;;;6.87;60.86;101416.95;1725581;81;20966;-69
2021/10/27 01:12:54;;;;;;;14.53;9.80;;;;;;;6.84;60.97;101412.58;1693250;82;21188;-70
2021/10/27 01:15:21;;;;;;;13.35;9.03;;;;;;;6.83;61.10;101412.28;1728887;81;20931;-69
2021/10/27 01:17:48;;;;;;;13.40;9.43;;;;;;;6.79;61.16;101407.91;1741502;81;21574;-67
2021/10/27 01:20:14;;;;;;;14.43;9.58;;;;;;;6.71;61.28;101411.62;1749187;80;21051;-68
2021/10/27 01:22:41;;;;;;;14.58;9.78;;;;;;;6.63;61.46;101401.23;1720523;81;21099;-69
2021/10/27 01:25:10;;;;;;;14.38;10.10;;;;;;;6.55;61.71;101402.28;1723178;81;21123;-68
2021/10/27 01:27:43;;;;;;;15.48;9.93;;;;;;;6.61;61.58;101400.61;1749347;80;22120;-68
2021/10/27 01:30:14;;;;;;;14.53;10.55;;;;;;;6.65;61.52;101402.36;1745081;80;21056;-68
2021/10/27 01:32:41;;;;;;;13.38;8.95;;;;;;;6.63;61.55;101399.90;1742824;80;21526;-69
2021/10/27 01:35:08;;;;;;;14.63;9.78;;;;;;;6.63;61.57;101399.90;1740693;80;21145;-68
2021/10/27 01:37:36;;;;;;;12.70;8.95;;;;;;;6.62;61.59;101402.26;1748792;80;21620;-69
2021/10/27 01:40:06;;;;;;;13.62;9.03;;;;;;;6.60;61.62;101398.18;1752246;80;22067;-68
2021/10/27 01:42:34;;;;;;;13.38;9.45;;;;;;;6.57;61.64;101390.12;1710519;81;21090;-68
2021/10/27 01:45:02;;;;;;;12.65;9.43;;;;;;;6.51;61.76;101389.10;1718876;81;21097;-69
2021/10/27 01:47:29;;;;;;;12.45;9.85;;;;;;;6.48;62.01;101384.24;1722758;83;21074;-69
2021/10/27 01:49:57;;;;;;;13.75;9.95;;;;;;;6.45;62.27;101386.47;1720138;81;21905;-67
2021/10/27 01:52:24;;;;;;;12.40;8.63;;;;;;;6.45;62.41;101386.47;1724208;81;21031;-67
2021/10/27 01:54:51;;;;;;;15.85;10.95;;;;;;;6.45;62.68;101387.80;1744598;80;21046;-68
2021/10/27 01:57:17;;;;;;;14.18;9.90;;;;;;;6.43;62.81;101382.72;1740216;80;21066;-68
2021/10/27 01:59:44;;;;;;;12.03;9.85;;;;;;;6.43;62.95;101383.23;1744239;80;21094;-68
2021/10/27 02:02:12;;;;;;;15.10;10.95;;;;;;;6.42;63.01;101378.95;1727556;81;21185;-68
2021/10/27 02:04:39;;;;;;;13.62;9.90;;;;;;;6.42;63.16;101381.61;1752134;80;21617;-68
2021/10/27 02:07:06;;;;;;;13.20;10.10;;;;;;;6.43;63.26;101381.39;1717417;81;21106;-68
2021/10/27 02:09:33;;;;;;;14.23;9.50;;;;;;;6.42;63.31;101376.30;1726072;81;21132;-68
2021/10/27 02:12:00;;;;;;;15.48;10.58;;;;;;;6.41;63.39;101372.81;1734052;82;21061;-68
2021/10/27 02:14:28;;;;;;;15.00;10.20;;;;;;;6.41;63.49;101369.34;1746176;80;21127;-68
2021/10/27 02:16:55;;;;;;;16.20;10.85;;;;;;;6.41;63.55;101372.81;1725922;81;21046;-68
2021/10/27 02:19:21;;;;;;;14.80;11.12;;;;;;;6.41;63.70;101370.16;1731964;81;21102;-69
2021/10/27 02:21:48;;;;;;;13.65;10.30;;;;;;;6.41;63.76;101373.33;1730152;81;21168;-69
2021/10/27 02:24:14;;;;;;;13.32;10.32;;;;;;;6.40;63.80;101371.19;1743549;81;21584;-68
2021/10/27 02:26:42;;;;;;;14.05;9.98;;;;;;;6.40;63.85;101373.03;1717591;83;21106;-68
2021/10/27 02:29:08;;;;;;;13.32;9.25;;;;;;;6.40;63.98;101368.53;1729777;81;21061;-68
2021/10/27 02:31:35;;;;;;;14.93;10.35;;;;;;;6.40;64.00;101367.72;1713802;81;21049;-68
2021/10/27 02:34:02;;;;;;;14.68;10.63;;;;;;;6.40;64.05;101363.23;1736123;81;21140;-68
2021/10/27 02:36:28;;;;;;;12.13;9.15;;;;;;;6.40;64.10;101363.75;1750235;80;21062;-68
2021/10/27 02:38:55;;;;;;;15.13;10.88;;;;;;;6.39;64.25;101364.78;1736524;80;22371;-68
2021/10/27 02:41:22;;;;;;;15.70;10.60;;;;;;;6.39;64.46;101366.11;1741997;80;20989;-68
2021/10/27 02:43:49;;;;;;;13.05;9.93;;;;;;;6.38;64.54;101363.13;1738692;81;21105;-68
2021/10/27 02:46:16;;;;;;;13.38;10.35;;;;;;;6.38;64.62;101361.80;1742561;80;21683;-68
2021/10/27 02:48:43;;;;;;;13.58;10.20;;;;;;;6.40;64.62;101360.58;1720694;80;20994;-68
2021/10/27 02:51:10;;;;;;;15.30;11.03;;;;;;;6.39;64.74;101361.61;1723055;81;21405;-68
2021/10/27 02:53:37;;;;;;;13.70;11.08;;;;;;;6.38;64.87;101364.45;1745683;80;21105;-68
2021/10/27 02:56:04;;;;;;;12.63;9.60;;;;;;;6.38;64.87;101361.80;1749022;80;21043;-68
2021/10/27 02:58:30;;;;;;;14.33;9.70;;;;;;;6.39;64.87;101354.98;1750422;80;21680;-69
2021/10/27 03:00:57;;;;;;;14.50;10.15;;;;;;;6.37;64.98;101351.70;1727531;82;21042;-69
2021/10/27 03:03:24;;;;;;;12.88;9.85;;;;;;;6.36;65.01;101351.93;1726043;81;21137;-68
2021/10/27 03:05:51;;;;;;;12.93;10.23;;;;;;;6.34;65.03;101347.62;1733272;81;21059;-68
2021/10/27 03:08:18;;;;;;;13.13;9.75;;;;;;;6.33;65.03;101351.31;1731381;81;21515;-69
2021/10/27 03:10:45;;;;;;;14.25;10.38;;;;;;;6.32;65.02;101351.02;1733455;81;21105;-68
2021/10/27 03:13:13;;;;;;;14.98;10.28;;;;;;;6.32;65.07;101350.20;1732215;81;21041;-68
2021/10/27 03:15:39;;;;;;;13.78;10.23;;;;;;;6.32;65.15;101348.36;1735894;81;21063;-68
2021/10/27 03:18:06;;;;;;;12.55;10.03;;;;;;;6.30;65.23;101342.95;1745156;80;21046;-67
2021/10/27 03:20:33;;;;;;;13.62;10.32;;;;;;;6.29;65.29;101347.45;1720162;81;21007;-68
2021/10/27 03:23:01;;;;;;;12.25;9.45;;;;;;;6.28;65.42;101345.80;1717184;82;21104;-68
2021/10/27 03:25:28;;;;;;;13.13;9.93;;;;;;;6.28;65.53;101347.12;1727262;81;21827;-68
2021/10/27 03:27:55;;;;;;;17.37;11.10;;;;;;;6.28;65.58;101341.82;1723434;81;21827;-67
2021/10/27 03:30:22;;;;;;;12.65;10.15;;;;;;;6.29;65.68;101344.80;1726040;82;21089;-68
2021/10/27 03:32:49;;;;;;;14.28;10.93;;;;;;;6.28;65.79;101344.99;1724945;81;21055;-69
2021/10/27 03:35:16;;;;;;;13.72;10.35;;;;;;;6.26;65.96;101345.22;1718911;82;21525;-69
2021/10/27 03:37:42;;;;;;;12.20;9.48;;;;;;;6.26;66.00;101338.59;1741112;81;21028;-69
2021/10/27 03:40:11;;;;;;;14.10;9.88;;;;;;;6.25;66.04;101334.31;1707836;82;21555;-69
2021/10/27 03:42:38;;;;;;;14.40;9.83;;;;;;;6.26;66.12;101335.93;1743698;80;21499;-69
2021/10/27 03:45:05;;;;;;;12.95;10.15;;;;;;;6.24;66.13;101332.66;1751521;80;21034;-69
2021/10/27 03:47:32;;;;;;;15.72;11.00;;;;;;;6.26;66.07;101318.69;1720150;82;21107;-69
2021/10/27 03:49:59;;;;;;;13.60;9.73;;;;;;;6.27;66.12;101317.66;1711375;82;21058;-69
2021/10/27 03:52:25;;;;;;;15.80;11.12;;;;;;;6.26;66.15;101315.22;1723711;81;22145;-68
2021/10/27 03:54:52;;;;;;;15.70;10.25;;;;;;;6.25;66.23;101320.20;1724555;82;21078;-68
2021/10/27 03:57:18;;;;;;;14.83;10.75;;;;;;;6.23;66.29;101323.08;1722065;83;21042;-69
2021/10/27 03:59:45;;;;;;;14.58;10.82;;;;;;;6.22;66.37;101327.25;1712605;81;21006;-69
2021/10/27 04:02:11;;;;;;;12.78;9.88;;;;;;;6.23;66.35;101325.73;1719504;81;21050;-68
2021/10/27 04:04:38;;;;;;;14.00;9.90;;;;;;;6.22;66.39;101322.79;1725415;81;21130;-69
2021/10/27 04:07:05;;;;;;;13.75;11.12;;;;;;;6.22;66.37;101324.59;1724389;83;21093;-69
2021/10/27 04:09:31;;;;;;;15.75;10.53;;;;;;;6.21;66.41;101325.63;1722789;81;21607;-70
2021/10/27 04:11:58;;;;;;;13.58;9.80;;;;;;;6.17;66.56;101321.78;1727641;81;21067;-69
2021/10/27 04:14:24;;;;;;;13.22;10.48;;;;;;;6.18;66.60;101325.53;1725046;83;21066;-68
2021/10/27 04:16:51;;;;;;;14.23;10.82;;;;;;;6.20;66.57;101331.45;1725877;82;21335;-68
2021/10/27 04:19:18;;;;;;;14.60;10.50;;;;;;;6.18;66.61;101316.77;1727288;81;21111;-67
2021/10/27 04:21:45;;;;;;;12.70;9.75;;;;;;;6.16;66.62;101322.30;1747277;80;21533;-67
2021/10/27 04:24:11;;;;;;;14.83;10.35;;;;;;;6.15;66.65;101317.98;1716844;80;21632;-68
2021/10/27 04:26:38;;;;;;;13.00;9.90;;;;;;;6.15;66.65;101317.98;1742209;80;21047;-68
2021/10/27 04:29:04;;;;;;;14.40;10.40;;;;;;;6.14;66.66;101320.35;1742876;80;21086;-68
2021/10/27 04:31:31;;;;;;;14.35;11.45;;;;;;;6.13;66.71;101321.38;1714454;81;21106;-68
2021/10/27 04:33:58;;;;;;;13.35;10.18;;;;;;;6.12;66.74;101329.05;1724691;81;21346;-69
2021/10/27 04:36:24;;;;;;;15.78;11.45;;;;;;;6.10;66.79;101331.08;1739179;80;21136;-69
2021/10/27 04:38:51;;;;;;;12.20;9.73;;;;;;;6.10;66.78;101324.45;1714324;82;21115;-69
2021/10/27 04:41:17;;;;;;;11.28;8.33;;;;;;;6.09;66.77;101328.94;1721658;81;21142;-69
2021/10/27 04:43:44;;;;;;;14.23;10.60;;;;;;;6.08;66.80;101328.62;1704791;82;21024;-68
2021/10/27 04:46:10;;;;;;;12.93;9.88;;;;;;;6.07;66.82;101327.00;1749323;80;21044;-67
2021/10/27 04:48:37;;;;;;;15.18;10.23;;;;;;;6.07;66.83;101321.69;1740321;80;21062;-67
2021/10/27 04:51:04;;;;;;;13.25;10.18;;;;;;;6.08;66.82;101321.98;1717094;81;21712;-68
2021/10/27 04:53:31;;;;;;;14.18;10.13;;;;;;;6.07;66.87;101322.20;1717333;81;21146;-69
2021/10/27 04:55:58;;;;;;;12.50;9.98;;;;;;;6.06;66.87;101324.05;1715016;81;21573;-69
2021/10/27 04:58:27;;;;;;;16.10;11.25;;;;;;;6.08;66.83;101325.16;1716978;83;21208;-69
2021/10/27 05:00:54;;;;;;;13.65;10.43;;;;;;;6.06;66.94;101328.03;1703896;82;21126;-70
2021/10/27 05:03:20;;;;;;;11.70;9.25;;;;;;;6.08;66.99;101339.74;1744787;80;21389;-70
2021/10/27 05:05:50;;;;;;;12.03;9.15;;;;;;;6.10;67.01;101343.83;1749716;80;21011;-70
2021/10/27 05:08:21;;;;;;;13.65;10.15;;;;;;;6.13;66.97;101339.95;1746832;80;20964;-70
2021/10/27 05:10:45;;;;;;;14.70;9.80;;;;;;;6.17;66.94;101333.72;1747847;80;21227;-70
2021/10/27 05:13:13;;;;;;;13.65;9.40;;;;;;;6.19;66.87;101339.13;1750322;80;21047;-70
2021/10/27 05:15:40;;;;;;;13.13;10.50;;;;;;;6.21;66.89;101350.83;1750509;80;21003;-70
2021/10/27 05:18:08;;;;;;;13.55;9.88;;;;;;;6.21;66.89;101344.20;1720600;81;21144;-70
2021/10/27 05:20:34;;;;;;;12.18;9.33;;;;;;;6.24;66.89;101354.40;1721484;81;21034;-70
2021/10/27 05:23:00;;;;;;;14.43;10.98;;;;;;;6.26;66.90;101350.52;1721115;81;20927;-70
2021/10/27 05:25:27;;;;;;;14.93;11.00;;;;;;;6.27;67.00;101353.47;1738814;80;21098;-70
2021/10/27 05:27:55;;;;;;;15.10;11.03;;;;;;;6.27;67.17;101352.14;1756472;80;21102;-70
2021/10/27 05:30:22;;;;;;;15.88;11.97;;;;;;;6.26;67.45;101353.69;1748493;80;21134;-69
2021/10/27 05:32:48;;;;;;;12.10;10.40;;;;;;;6.29;67.50;101354.09;1745301;80;21668;-70
2021/10/27 05:35:15;;;;;;;12.98;10.13;;;;;;;6.36;67.48;101353.25;1742800;80;21110;-70
2021/10/27 05:37:42;;;;;;;12.65;10.58;;;;;;;6.41;67.43;101351.58;1752109;80;21040;-69
2021/10/27 05:40:10;;;;;;;14.18;10.43;;;;;;;6.48;67.40;101362.17;1717570;81;21066;-68
2021/10/27 05:42:39;;;;;;;14.50;10.68;;;;;;;6.51;67.39;101359.91;1748749;80;21801;-69
2021/10/27 05:45:07;;;;;;;15.85;12.07;;;;;;;6.57;67.34;101360.92;1753070;80;21387;-69
2021/10/27 05:47:35;;;;;;;13.35;10.48;;;;;;;6.60;67.32;101363.16;1751672;80;21021;-69
2021/10/27 05:55:36;;;;;;;15.28;11.22;;;;;;;6.76;67.33;101366.66;1712980;83;22356;-69
2021/10/27 05:58:05;;;;;;;13.70;10.65;;;;;;;6.83;67.27;101365.30;1726632;82;21015;-68
2021/10/27 06:00:32;;;;;;;17.05;12.07;;;;;;;6.90;67.20;101364.74;1736703;81;21094;-69
2021/10/27 06:03:01;;;;;;;15.65;10.32;;;;;;;6.97;67.16;101360.20;1718960;83;21020;-69
2021/10/27 06:05:30;;;;;;;13.30;11.05;;;;;;;7.03;67.10;101361.20;1719504;81;21078;-70
2021/10/27 06:07:59;;;;;;;13.83;10.88;;;;;;;7.09;67.03;101363.53;1721377;81;21154;-70
2021/10/27 06:10:26;;;;;;;16.15;12.05;;;;;;;7.14;66.93;101356.55;1724332;81;21078;-71
2021/10/27 06:12:58;;;;;;;15.48;12.00;;;;;;;7.21;66.86;101349.86;1745171;80;21696;-69
2021/10/27 06:15:26;;;;;;;16.42;11.45;;;;;;;7.29;66.80;101353.58;1716015;81;21061;-69
2021/10/27 06:17:53;;;;;;;15.18;11.48;;;;;;;7.36;66.71;101350.34;1702920;82;21225;-70
2021/10/27 06:20:23;;;;;;;14.83;11.35;;;;;;;7.47;66.66;101362.15;1728482;82;21107;-71
2021/10/27 06:22:50;;;;;;;14.70;11.57;;;;;;;7.54;66.55;101369.55;1732330;81;21477;-70
2021/10/27 06:25:16;;;;;;;16.90;11.78;;;;;;;7.64;66.43;101365.08;1744203;80;21090;-70
2021/10/27 06:27:50;;;;;;;14.87;11.22;;;;;;;7.71;66.22;101365.83;1751358;80;21502;-70
2021/10/27 06:30:27;;;;;;;13.45;10.58;;;;;;;7.79;66.12;101368.20;1748849;80;21074;-72
2021/10/27 06:33:01;;;;;;;16.60;11.83;;;;;;;7.87;65.92;101365.80;1720795;81;21067;-71
2021/10/27 06:35:27;;;;;;;15.28;11.65;;;;;;;7.94;65.83;101364.69;1746988;81;21046;-71
2021/10/27 06:46:40;;;;;;;13.62;10.95;;;;;;;8.34;64.80;101371.45;1753643;81;22167;-71
2021/10/27 06:48:41;;;;;;;15.30;12.15;;;;;;;8.44;64.74;101374.44;1743377;81;21046;-72
2021/10/27 06:51:08;;;;;;;19.35;12.20;;;;;;;8.52;64.48;101374.64;1730393;80;21104;-70
2021/10/27 06:53:36;;;;;;;17.32;11.95;;;;;;;8.56;64.17;101373.99;1756560;81;20941;-72
2021/10/27 06:56:08;;;;;;;17.30;11.78;;;;;;;8.61;64.09;101379.45;1705993;81;21054;-71
2021/10/27 06:58:41;;;;;;;15.65;11.20;;;;;;;8.69;64.06;101376.49;1741371;80;21125;-71
2021/10/27 07:01:02;;;;;;;17.02;12.88;;;;;;;8.75;63.80;101378.76;1723289;82;21604;-69
2021/10/27 07:03:47;;;;;;;17.23;11.95;;;;;;;8.83;63.58;101370.47;1754694;80;21046;-70
2021/10/27 07:17:09;;;;;;;19.07;12.98;;;;;;;9.18;62.36;101351.14;1723806;81;21109;-70
2021/10/27 07:19:37;;;;;;;15.60;11.57;;;;;;;9.20;61.75;101346.91;1721769;81;38652;-70
2021/10/27 07:22:04;;;;;;;15.53;11.95;;;;;;;9.25;61.68;101332.38;1711088;83;20951;-71
2021/10/27 07:24:31;;;;;;;13.60;11.15;;;;;;;9.32;61.47;101314.42;1738259;80;21805;-70
2021/10/27 07:27:05;;;;;;;17.07;12.03;;;;;;;9.40;61.24;101326.88;1719423;81;21038;-70
2021/10/27 07:29:29;;;;;;;16.90;12.03;;;;;;;9.51;61.04;101323.12;1733600;80;21535;-69
2021/10/27 07:31:56;;;;;;;16.40;12.70;;;;;;;9.51;60.32;101321.78;1721678;81;21560;-69
2021/10/27 07:34:38;;;;;;;14.83;11.93;;;;;;;9.54;60.32;101311.98;1743405;80;21034;-70
2021/10/27 07:42:16;;;;;;;16.52;12.45;;;;;;;9.87;59.88;101323.41;1747030;80;21090;-70
2021/10/27 07:44:45;;;;;;;16.27;11.35;;;;;;;9.91;59.12;101317.91;1718740;81;21003;-69
2021/10/27 07:47:12;;;;;;;15.75;11.63;;;;;;;9.96;59.12;101326.55;1722801;82;21596;-68
2021/10/27 07:49:39;;;;;;;15.50;11.15;;;;;;;10.05;59.13;101323.81;1716763;82;21156;-69
2021/10/27 07:52:06;;;;;;;17.17;12.90;;;;;;;10.22;59.04;101322.56;1726193;82;20972;-69
2021/10/27 07:54:34;;;;;;;16.27;12.80;;;;;;;10.31;58.13;101317.17;1755117;80;21019;-69
2021/10/27 07:57:04;;;;;;;14.78;11.18;;;;;;;10.40;58.07;101323.78;1713034;81;21082;-69
2021/10/27 07:59:31;;;;;;;16.50;11.50;;;;;;;10.50;57.59;101320.50;1753854;80;21207;-71
2021/10/27 08:02:04;;;;;;;16.17;11.28;;;;;;;10.53;57.16;101315.48;1746794;81;21133;-70
2021/10/27 08:04:29;;;;;;;15.10;10.80;;;;;;;10.54;56.88;101305.61;1754449;80;20993;-69
2021/10/27 08:06:56;;;;;;;14.63;11.20;;;;;;;10.63;56.81;101309.53;1724800;81;21604;-68
2021/10/27 08:09:22;;;;;;;13.48;10.13;;;;;;;10.71;56.32;101306.98;1753646;80;21028;-70
2021/10/27 08:11:49;;;;;;;16.48;12.75;;;;;;;10.74;55.94;101315.34;1755410;80;21054;-70
2021/10/27 08:14:17;;;;;;;16.07;12.80;;;;;;;10.77;55.80;101316.20;1755542;80;21039;-69
2021/10/27 08:16:45;;;;;;;18.37;12.93;;;;;;;10.82;55.69;101316.80;1756783;81;21431;-69
2021/10/27 08:19:12;;;;;;;15.45;11.22;;;;;;;10.94;55.70;101318.90;1740898;81;21054;-68
2021/10/27 08:21:43;;;;;;;14.58;11.50;;;;;;;11.05;55.13;101313.20;1751455;80;21004;-70
2021/10/27 08:24:11;;;;;;;13.95;10.65;;;;;;;11.12;54.60;101315.22;1756978;81;20991;-70
2021/10/27 08:26:45;;;;;;;16.15;10.65;;;;;;;11.16;54.43;101314.20;1756535;80;21193;-71
2021/10/27 08:29:12;;;;;;;16.77;11.95;;;;;;;11.26;54.30;101313.03;1753999;80;20983;-70
2021/10/27 08:31:41;;;;;;;14.53;10.25;;;;;;;11.34;54.01;101303.25;1724101;81;21016;-70
2021/10/27 08:34:20;;;;;;;14.60;10.85;;;;;;;11.47;53.94;101302.92;1730879;81;21038;-70
2021/10/27 08:36:43;;;;;;;15.10;11.00;;;;;;;11.60;53.39;101303.11;1756059;81;20956;-70
2021/10/27 08:39:16;;;;;;;14.95;10.72;;;;;;;11.60;52.98;101298.30;1756172;80;21186;-69
2021/10/27 08:41:43;;;;;;;13.03;10.25;;;;;;;11.67;53.34;101286.35;1736939;81;21011;-69
2021/10/27 08:44:12;;;;;;;11.70;9.45;;;;;;;11.87;53.27;101289.06;1709843;81;21541;-69
2021/10/27 08:46:40;;;;;;;16.25;10.98;;;;;;;12.08;52.27;101285.60;1698438;83;21070;-71
2021/10/27 08:49:07;;;;;;;15.40;10.88;;;;;;;12.11;51.51;101273.56;1756237;80;21011;-70
2021/10/27 08:51:36;;;;;;;13.48;10.55;;;;;;;12.10;51.42;101282.66;1754437;80;21776;-70
2021/10/27 08:54:06;;;;;;;14.23;11.03;;;;;;;12.13;51.68;101283.51;1756006;80;20948;-70
2021/10/27 08:56:39;;;;;;;13.85;11.35;;;;;;;12.21;51.59;101288.44;1723765;83;21062;-70
2021/10/27 08:59:13;;;;;;;;;;;;;;;12.29;50.94;101291.20;1758029;80;21051;-69
2021/10/27 09:06:48;;;;;;;13.18;9.83;;;;;;;12.29;50.54;101292.00;1751339;80;21007;-70
2021/10/27 09:36:16;;;;;;;16.50;10.70;;;;;;;13.42;47.01;101288.52;1708242;81;21339;-70
2021/10/27 09:41:57;;;;;;;15.70;11.27;;;;;;;13.72;46.95;101279.88;1719515;82;21694;-69
2021/10/27 09:47:48;;;;;;;16.83;12.03;;;;;;;13.99;45.57;101272.22;1685437;82;21925;-68
2021/10/27 10:06:48;;;;;;;14.93;11.57;;;;;;;14.52;44.61;101250.11;1686995;83;21294;-70
2021/10/27 10:09:16;;;;;;;16.77;11.97;;;;;;;14.58;44.57;101245.02;1697927;83;21231;-70
2021/10/27 10:11:44;;;;;;;15.40;11.33;;;;;;;14.68;43.99;101249.59;1696982;83;21152;-71
2021/10/27 10:14:12;;;;;;;14.93;11.20;;;;;;;14.60;44.30;101241.50;1722926;83;21313;-71
2021/10/27 10:16:50;;;;;;;15.50;11.20;;;;;;;14.59;44.37;101241.24;1724971;82;21583;-71
2021/10/27 10:19:20;;;;;;;13.30;10.47;;;;;;;14.62;44.51;101249.32;1728501;82;21656;-70
2021/10/27 10:21:49;;;;;;;12.37;9.70;;;;;;;14.71;44.55;101248.52;1699615;82;21237;-69
2021/10/27 10:24:24;;;;;;;13.90;10.30;;;;;;;14.84;44.27;101242.33;1706354;82;21828;-69
2021/10/27 10:26:53;;;;;;;16.53;11.70;;;;;;;14.94;44.06;101240.47;1710922;82;21851;-69
2021/10/27 10:29:47;;;;;;;14.47;10.73;;;;;;;14.96;43.58;101242.88;1708794;82;21282;-69
2021/10/27 10:32:28;;;;;;;12.50;8.97;;;;;;;14.97;43.86;101235.06;1710938;82;21440;-70
2021/10/27 10:35:12;;;;;;;16.83;12.30;;;;;;;15.09;43.82;101238.30;1709629;82;21435;-70
2021/10/27 10:40:40;;;;;;;16.10;11.90;;;;;;;15.20;42.58;101233.19;1689146;82;21411;-70
2021/10/27 10:45:56;;;;;;;16.23;11.60;;;;;;;15.49;42.62;101236.61;1710375;82;21287;-69
2021/10/27 11:22:17;;;;;;;20.03;12.67;;;;;;;15.27;41.27;101232.91;1708701;82;21401;-69
2021/10/27 11:23:01;;;;;;;17.87;13.10;;;;;;;15.39;41.28;101241.48;1711245;83;21402;-69
2021/10/27 11:41:57;;;;;;;26.50;15.57;;;;;;;14.78;42.19;101253.64;1717540;81;21430;-72
2021/10/27 11:47:42;;;;;;;20.00;14.23;;;;;;;14.61;42.81;101243.14;1712943;82;21298;-77
2021/10/27 11:50:11;;;;;;;18.47;14.33;;;;;;;14.54;43.16;101247.43;1707029;83;21384;-76
2021/10/27 11:52:42;;;;;;;23.77;15.53;;;;;;;14.47;43.40;101249.52;1686256;83;21312;-84
2021/10/27 11:55:14;;;;;;;;;;;;;;;14.35;43.81;101248.16;1713823;82;21304;-76
2021/10/27 11:57:44;;;;;;;21.60;16.97;;;;;;;14.29;44.06;101252.17;1702268;82;20627;-75
2021/10/27 12:03:07;;;;;;;27.07;17.90;;;;;;;14.16;44.36;101249.17;1689061;83;21330;-77
2021/10/27 12:05:45;;;;;;;22.98;16.32;;;;;;;14.09;44.66;101254.80;1710125;82;21323;-77
2021/10/27 12:08:33;;;;;;;21.47;16.57;;;;;;;14.10;44.74;101249.69;1702587;82;21053;-69
2021/10/27 12:11:06;;;;;;;21.10;15.20;;;;;;;14.11;44.74;101259.35;1711803;82;21395;-69
2021/10/27 12:19:14;;;;;;;19.77;15.63;;;;;;;14.07;45.24;101251.55;1689630;83;21293;-70
2021/10/27 12:21:54;;;;;;;19.77;14.87;;;;;;;14.06;45.24;101248.61;1692938;83;21366;-70
2021/10/27 12:24:25;;;;;;;22.67;17.30;;;;;;;14.08;45.39;101249.12;1708453;81;21790;-69
2021/10/27 12:27:01;;;;;;;23.93;16.47;;;;;;;14.10;45.26;101252.38;1691262;83;21478;-70
2021/10/27 12:29:29;;;;;;;24.40;16.93;;;;;;;14.12;45.30;101252.92;1682669;83;22013;-70
2021/10/27 12:32:07;;;;;;;23.10;17.00;;;;;;;14.17;45.35;101259.64;1694251;83;21367;-70
2021/10/27 12:34:53;;;;;;;24.43;17.67;;;;;;;14.21;45.26;101257.23;1699422;84;21279;-69
2021/10/27 12:40:21;;;;;;;20.73;16.03;;;;;;;14.25;45.28;101258.34;1694301;81;21721;-70
2021/10/27 12:42:47;;;;;;;23.53;17.50;;;;;;;14.27;45.37;101262.36;1698901;83;21812;-71
2021/10/27 12:45:13;;;;;;;27.10;18.23;;;;;;;14.23;45.39;101258.59;1749173;81;21373;-70
2021/10/27 12:47:40;;;;;;;26.57;18.40;;;;;;;14.22;45.53;101255.64;1752894;81;21430;-69
2021/10/27 12:50:14;;;;;;;24.83;18.00;;;;;;;14.24;45.57;101252.68;1755548;81;21341;-70
2021/10/27 12:52:59;;;;;;;24.07;17.70;;;;;;;14.21;45.58;101252.66;1755127;80;21191;-69
2021/10/27 12:55:44;;;;;;;29.10;19.87;;;;;;;14.17;45.65;101256.95;1754890;80;21287;-70
2021/10/27 12:58:15;;;;;;;27.60;18.73;;;;;;;14.08;45.87;101260.70;1755211;81;21252;-70
2021/10/27 13:01:10;;;;;;;24.32;18.55;;;;;;;14.05;46.07;101267.95;1766399;80;21076;-71
2021/10/27 13:03:58;;;;;;;25.10;19.03;;;;;;;14.02;46.32;101272.50;1767318;79;21121;-72
2021/10/27 13:12:11;;;;;;;28.67;19.93;;;;;;;13.97;46.98;101278.38;1755413;80;21124;-70
2021/10/27 13:33:12;;;;;;;26.67;18.87;;;;;;;13.95;47.86;101286.70;1754892;80;21288;-70
2021/10/27 13:35:39;;;;;;;29.80;19.50;;;;;;;13.91;48.24;101292.30;1753518;80;21224;-70
2021/10/27 13:38:07;;;;;;;25.97;18.90;;;;;;;13.87;48.42;101292.56;1734401;81;21736;-69
2021/10/27 13:40:36;;;;;;;29.17;20.27;;;;;;;13.80;48.53;101296.02;1742908;80;21702;-69
2021/10/27 13:45:58;;;;;;;34.23;23.70;;;;;;;13.67;49.25;101303.19;1696374;83;21379;-70
2021/10/27 14:07:20;;;;;;;30.97;20.02;;;;;;;13.45;51.09;101330.14;1714945;82;21644;-69
2021/10/27 14:09:57;;;;;;;39.07;22.07;;;;;;;13.41;51.24;101337.89;1697202;83;21069;-69
2021/10/27 14:12:29;;;;;;;30.00;21.93;;;;;;;13.35;51.33;101337.03;1706573;81;21482;-69
2021/10/27 14:23:14;;;;;;;50.75;40.33;;;;;;;13.13;51.86;101340.33;1685278;83;21109;-70
2021/10/27 15:20:27;;;;;;;20.10;14.18;;;;;;;12.47;54.66;101421.34;1720286;81;21125;-70
2021/10/27 15:23:02;;;;;;;23.73;15.45;;;;;;;12.42;54.94;101410.04;1699069;83;21066;-68
2021/10/27 15:25:35;;;;;;;22.32;15.80;;;;;;;12.37;55.12;101419.34;1705303;81;21472;-70
2021/10/27 15:30:50;;;;;;;24.55;16.00;;;;;;;12.35;55.31;101419.59;1687476;83;21245;-69
2021/10/27 15:51:36;;;;;;;21.42;14.85;;;;;;;12.41;55.75;101432.54;1720959;82;21124;-72
2021/10/27 15:54:04;;;;;;;22.80;15.93;;;;;;;12.38;55.86;101437.86;1685304;84;21121;-70
2021/10/27 15:56:34;;;;;;;19.05;13.60;;;;;;;12.41;55.94;101436.03;1699517;81;21148;-70
2021/10/27 15:59:01;;;;;;;21.07;14.87;;;;;;;12.41;56.08;101443.26;1698854;83;21192;-71
2021/10/27 16:01:28;;;;;;;18.90;13.55;;;;;;;12.39;56.15;101436.79;1692790;83;21023;-71
2021/10/27 16:03:55;;;;;;;18.82;12.60;;;;;;;12.39;56.19;101432.77;1715451;81;21115;-70
2021/10/27 16:06:24;;;;;;;18.27;12.78;;;;;;;12.39;56.12;101446.70;1709436;82;21088;-70
2021/10/27 16:08:56;;;;;;;16.73;12.23;;;;;;;12.40;56.15;101433.08;1713026;82;21175;-71